createdAt,value
2017-09-19T00:01:23.764Z,75.30
2017-09-19T00:03:50.692Z,75.40
2017-09-19T00:06:17.653Z,75.90
2017-09-19T00:08:44.554Z,75.30
2017-09-19T00:11:11.476Z,75.30
2017-09-19T00:13:38.351Z,75.40
2017-09-19T00:16:05.246Z,75.30
2017-09-19T00:18:32.191Z,75.10
2017-09-19T00:20:59.073Z,75.10
2017-09-19T00:23:26.050Z,75.10
2017-09-19T00:25:52.913Z,75.20
2017-09-19T00:28:19.871Z,75.20
2017-09-19T00:30:46.755Z,75.20
2017-09-19T00:33:14.385Z,75.10
2017-09-19T00:35:41.356Z,75.10
2017-09-19T00:38:09.033Z,75.20
2017-09-19T00:40:36.052Z,75.20
2017-09-19T00:43:02.994Z,75.10
2017-09-19T00:45:29.903Z,75.00
2017-09-19T00:47:56.923Z,75.00
2017-09-19T00:50:23.930Z,75.00
2017-09-19T00:52:51.612Z,75.30
2017-09-19T00:55:19.315Z,75.10
2017-09-19T00:57:46.328Z,75.00
2017-09-19T01:00:14.059Z,75.50
2017-09-19T01:02:41.053Z,75.50
2017-09-19T01:05:07.993Z,75.70
2017-09-19T01:07:35.717Z,76.20
2017-09-19T01:10:02.651Z,76.20
2017-09-19T01:12:29.577Z,76.20
2017-09-19T01:14:56.579Z,76.40
2017-09-19T01:17:23.488Z,76.50
2017-09-19T01:19:50.372Z,76.70
2017-09-19T01:22:18.200Z,76.90
2017-09-19T01:24:45.124Z,76.90
2017-09-19T01:27:12.123Z,77.40
2017-09-19T01:29:39.141Z,77.30
2017-09-19T01:32:06.123Z,77.40
2017-09-19T01:34:33.012Z,77.30
2017-09-19T01:36:59.977Z,77.10
2017-09-19T01:39:26.969Z,77.40
2017-09-19T01:41:53.829Z,77.50
2017-09-19T01:44:20.756Z,77.70
2017-09-19T01:46:48.388Z,77.10
2017-09-19T01:49:15.403Z,77.60
2017-09-19T01:51:42.282Z,78.00
2017-09-19T01:54:09.376Z,78.20
2017-09-19T01:56:36.235Z,78.40
2017-09-19T01:59:03.203Z,78.50
2017-09-19T02:01:30.190Z,78.40
2017-09-19T02:03:57.138Z,78.50
2017-09-19T02:06:24.141Z,78.80
2017-09-19T02:08:51.106Z,79.00
2017-09-19T02:11:18.086Z,78.70
2017-09-19T02:13:45.802Z,79.30
2017-09-19T02:16:12.687Z,78.70
2017-09-19T02:18:39.617Z,78.90
2017-09-19T02:21:06.549Z,79.30
2017-09-19T02:23:33.497Z,79.30
2017-09-19T02:26:00.420Z,79.50
2017-09-19T02:28:27.301Z,79.50
2017-09-19T02:30:54.266Z,79.50
2017-09-19T02:33:21.163Z,79.70
2017-09-19T02:35:48.050Z,79.60
2017-09-19T02:38:15.012Z,79.60
2017-09-19T02:40:42.633Z,79.50
2017-09-19T02:43:09.524Z,79.40
2017-09-19T02:45:36.445Z,79.80
2017-09-19T02:48:03.321Z,79.60
2017-09-19T02:50:30.388Z,79.80
2017-09-19T02:52:57.241Z,80.10
2017-09-19T02:55:24.245Z,80.10
2017-09-19T02:57:51.891Z,79.80
2017-09-19T03:00:18.768Z,80.10
2017-09-19T03:02:45.715Z,80.10
2017-09-19T03:05:12.669Z,80.20
2017-09-19T03:07:39.613Z,80.30
2017-09-19T03:10:06.664Z,80.00
2017-09-19T03:12:33.689Z,80.00
2017-09-19T03:15:01.367Z,79.90
2017-09-19T03:17:28.256Z,80.00
2017-09-19T03:19:55.204Z,79.90
2017-09-19T03:22:22.182Z,79.90
2017-09-19T03:24:49.224Z,80.20
2017-09-19T03:27:16.133Z,80.00
2017-09-19T03:29:43.044Z,79.60
2017-09-19T03:32:09.996Z,79.70
2017-09-19T03:34:36.894Z,79.90
2017-09-19T03:37:03.864Z,79.90
2017-09-19T03:39:30.840Z,80.00
2017-09-19T03:41:57.747Z,80.00
2017-09-19T03:44:24.705Z,80.00
2017-09-19T03:46:51.688Z,79.80
2017-09-19T03:49:18.689Z,79.80
2017-09-19T03:51:45.588Z,79.80
2017-09-19T03:54:12.518Z,79.70
2017-09-19T03:56:39.460Z,79.60
2017-09-19T03:59:06.398Z,79.70
2017-09-19T04:01:33.345Z,79.90
2017-09-19T04:04:00.353Z,79.60
2017-09-19T04:06:27.283Z,79.60
2017-09-19T04:08:54.272Z,79.60
2017-09-19T04:11:21.166Z,79.60
2017-09-19T04:13:48.113Z,79.40
2017-09-19T04:16:15.004Z,79.30
2017-09-19T04:18:41.964Z,79.40
2017-09-19T04:21:08.853Z,79.40
2017-09-19T04:23:35.848Z,79.20
2017-09-19T04:26:02.832Z,79.10
2017-09-19T04:28:29.867Z,79.00
2017-09-19T04:30:56.865Z,78.80
2017-09-19T04:33:23.888Z,78.80
2017-09-19T04:35:54.838Z,78.70
2017-09-19T04:38:25.065Z,78.70
2017-09-19T04:41:02.560Z,78.60
2017-09-19T04:43:31.586Z,78.50
2017-09-19T04:45:58.560Z,78.70
2017-09-19T04:48:25.433Z,78.90
2017-09-19T04:50:52.373Z,78.70
2017-09-19T04:53:20.140Z,78.60
2017-09-19T04:55:47.090Z,78.50
2017-09-19T04:58:14.548Z,78.50
2017-09-19T05:00:41.520Z,78.70
2017-09-19T05:03:08.433Z,78.70
2017-09-19T05:05:35.343Z,78.70
2017-09-19T05:08:02.309Z,78.60
2017-09-19T05:10:29.298Z,78.50
2017-09-19T05:13:10.171Z,78.60
2017-09-19T05:15:37.892Z,78.60
2017-09-19T05:18:04.753Z,78.50
2017-09-19T05:20:31.659Z,78.30
2017-09-19T05:22:59.348Z,78.40
2017-09-19T05:25:26.240Z,78.30
2017-09-19T05:27:53.135Z,78.40
2017-09-19T05:30:20.098Z,78.50
2017-09-19T05:32:47.046Z,78.30
2017-09-19T05:35:14.026Z,78.80
2017-09-19T05:37:40.956Z,78.70
2017-09-19T05:40:08.004Z,78.50
2017-09-19T05:42:34.893Z,78.40
2017-09-19T05:45:01.843Z,78.40
2017-09-19T05:47:28.780Z,78.20
2017-09-19T05:49:55.642Z,78.10
2017-09-19T05:52:23.308Z,78.30
2017-09-19T05:54:50.173Z,78.30
2017-09-19T05:57:17.038Z,78.80
2017-09-19T05:59:44.060Z,78.80
2017-09-19T06:02:10.929Z,78.90
2017-09-19T06:04:37.872Z,78.90
2017-09-19T06:07:04.801Z,78.80
2017-09-19T06:09:33.661Z,78.80
2017-09-19T06:12:00.660Z,78.80
2017-09-19T06:14:27.590Z,78.80
2017-09-19T06:16:54.465Z,78.70
2017-09-19T06:19:21.419Z,78.60
2017-09-19T06:21:48.287Z,78.60
2017-09-19T06:24:15.240Z,78.40
2017-09-19T06:26:42.939Z,79.00
2017-09-19T06:29:09.909Z,78.20
2017-09-19T06:31:37.040Z,78.30
2017-09-19T06:34:03.973Z,78.40
2017-09-19T06:36:30.889Z,78.30
2017-09-19T06:38:57.896Z,78.30
2017-09-19T06:41:24.880Z,78.50
2017-09-19T06:43:51.787Z,78.30
2017-09-19T06:46:22.003Z,78.50
2017-09-19T06:48:52.644Z,78.30
2017-09-19T06:51:19.761Z,78.60
2017-09-19T06:53:46.792Z,78.40
2017-09-19T06:56:14.406Z,78.00
2017-09-19T06:58:41.427Z,77.90
2017-09-19T07:01:08.309Z,77.90
2017-09-19T07:03:35.202Z,77.80
2017-09-19T07:06:02.926Z,77.40
2017-09-19T07:08:29.899Z,77.40
2017-09-19T07:10:57.548Z,77.30
2017-09-19T07:13:24.532Z,77.20
2017-09-19T07:15:51.432Z,76.80
2017-09-19T07:18:18.316Z,76.40
2017-09-19T07:20:45.248Z,75.90
2017-09-19T07:23:12.957Z,75.70
2017-09-19T07:25:39.833Z,75.70
2017-09-19T07:28:06.713Z,74.60
2017-09-19T07:30:33.689Z,74.50
2017-09-19T07:33:00.568Z,74.40
2017-09-19T07:35:27.505Z,74.10
2017-09-19T07:37:54.389Z,74.00
2017-09-19T07:40:22.098Z,72.70
2017-09-19T07:42:48.985Z,72.70
2017-09-19T07:45:15.880Z,72.40
2017-09-19T07:47:42.808Z,72.20
2017-09-19T07:50:09.708Z,71.20
2017-09-19T07:52:36.683Z,70.80
2017-09-19T07:55:04.301Z,71.20
2017-09-19T07:57:31.359Z,71.20
2017-09-19T07:59:58.415Z,70.90
2017-09-19T08:02:25.381Z,70.10
2017-09-19T08:04:52.291Z,70.20
2017-09-19T08:07:19.177Z,69.10
2017-09-19T08:09:46.177Z,69.30
2017-09-19T08:12:13.096Z,69.80
2017-09-19T08:14:40.054Z,69.10
2017-09-19T08:17:06.960Z,68.80
2017-09-19T08:19:33.890Z,68.40
2017-09-19T08:22:00.773Z,68.50
2017-09-19T08:24:27.747Z,67.50
2017-09-19T08:26:54.650Z,66.40
2017-09-19T08:29:21.608Z,66.10
2017-09-19T08:31:48.527Z,66.50
2017-09-19T08:34:15.435Z,66.10
2017-09-19T08:36:42.364Z,64.60
2017-09-19T08:39:09.340Z,64.70
2017-09-19T08:41:36.221Z,64.10
2017-09-19T08:44:03.965Z,62.30
2017-09-19T08:46:30.850Z,62.30
2017-09-19T08:48:57.724Z,61.60
2017-09-19T08:51:24.712Z,61.00
2017-09-19T08:53:51.588Z,60.70
2017-09-19T08:56:18.478Z,60.20
2017-09-19T08:58:45.482Z,60.50
2017-09-19T09:01:12.411Z,61.40
2017-09-19T09:03:40.174Z,61.50
2017-09-19T09:06:07.836Z,61.80
2017-09-19T09:08:35.516Z,60.60
2017-09-19T09:11:02.396Z,60.50
2017-09-19T09:13:29.260Z,59.30
2017-09-19T09:15:56.193Z,59.10
2017-09-19T09:18:23.109Z,59.80
2017-09-19T09:20:50.065Z,59.30
2017-09-19T09:23:17.012Z,59.40
2017-09-19T09:25:43.969Z,59.90
2017-09-19T09:28:10.913Z,58.80
2017-09-19T09:30:37.846Z,58.30
2017-09-19T09:33:04.723Z,57.60
2017-09-19T09:35:31.712Z,57.60
2017-09-19T09:37:59.367Z,53.30
2017-09-19T09:40:27.045Z,53.60
2017-09-19T09:42:54.082Z,53.40
2017-09-19T09:45:21.698Z,51.90
2017-09-19T09:47:49.628Z,51.80
2017-09-19T09:50:16.494Z,51.00
2017-09-19T09:52:43.432Z,49.90
2017-09-19T09:55:10.356Z,50.00
2017-09-19T09:57:37.969Z,49.50
2017-09-19T10:00:04.912Z,49.50
2017-09-19T10:02:31.805Z,50.00
2017-09-19T10:04:59.524Z,49.30
2017-09-19T10:07:26.418Z,49.30
2017-09-19T10:09:54.053Z,48.70
2017-09-19T10:12:21.044Z,48.60
2017-09-19T10:14:47.937Z,48.80
2017-09-19T10:17:14.956Z,47.60
2017-09-19T10:19:42.034Z,48.60
2017-09-19T10:22:09.040Z,48.70
2017-09-19T10:24:38.613Z,48.70
2017-09-19T10:27:18.821Z,49.70
2017-09-19T10:30:02.504Z,51.50
2017-09-19T10:32:43.864Z,51.90
2017-09-19T10:35:27.045Z,52.70
2017-09-19T10:38:08.098Z,52.50
2017-09-19T10:40:50.561Z,53.00
2017-09-19T10:43:31.681Z,52.10
2017-09-19T10:51:43.001Z,48.30
2017-09-19T10:54:25.600Z,48.90
2017-09-19T10:57:08.872Z,47.70
2017-09-19T10:59:52.054Z,47.50
2017-09-19T11:02:34.775Z,47.40
2017-09-19T11:05:16.545Z,48.20
2017-09-19T11:08:00.588Z,46.70
2017-09-19T11:16:07.468Z,47.80
2017-09-19T11:18:51.030Z,48.50
2017-09-19T11:21:35.636Z,49.40
2017-09-19T11:24:18.825Z,48.20
2017-09-19T11:29:43.011Z,50.80
2017-09-19T11:32:25.164Z,49.80
2017-09-19T11:35:05.086Z,49.40
2017-09-19T11:37:40.366Z,49.90
2017-09-19T11:40:20.313Z,47.70
2017-09-19T11:42:59.847Z,47.60
2017-09-19T11:45:42.170Z,47.80
2017-09-19T11:51:08.068Z,44.40
2017-09-19T11:53:50.796Z,44.60
2017-09-19T11:56:31.485Z,45.30
2017-09-19T12:01:59.139Z,44.90
2017-09-19T12:04:40.133Z,45.40
2017-09-19T12:10:08.625Z,47.30
2017-09-19T12:12:50.298Z,47.80
2017-09-19T12:15:32.039Z,49.60
2017-09-19T12:21:00.834Z,50.40
2017-09-19T12:23:38.684Z,50.80
2017-09-19T12:26:15.072Z,51.50
2017-09-19T12:28:55.384Z,51.70
2017-09-19T12:31:36.215Z,51.20
2017-09-19T12:34:17.370Z,51.50
2017-09-19T12:36:56.165Z,52.70
2017-09-19T12:39:35.787Z,52.60
2017-09-19T12:47:42.179Z,53.10
2017-09-19T12:50:25.800Z,53.40
2017-09-19T12:53:11.132Z,47.80
2017-09-19T12:55:50.965Z,43.80
2017-09-19T12:58:28.093Z,43.90
2017-09-19T13:01:05.854Z,43.60
2017-09-19T13:03:42.676Z,44.00
2017-09-19T13:06:22.618Z,43.40
2017-09-19T13:11:48.034Z,40.70
2017-09-19T13:14:29.281Z,40.40
2017-09-19T13:17:10.435Z,42.70
2017-09-19T13:19:49.249Z,44.40
2017-09-19T13:22:27.079Z,44.70
2017-09-19T13:24:59.765Z,44.60
2017-09-19T13:30:20.164Z,44.20
2017-09-19T13:33:00.620Z,44.80
2017-09-19T13:35:27.557Z,44.80
2017-09-19T13:37:54.526Z,44.90
2017-09-19T13:40:21.387Z,45.40
2017-09-19T13:42:48.432Z,42.90
2017-09-19T13:45:15.424Z,44.70
2017-09-19T13:47:46.043Z,43.80
2017-09-19T13:50:12.990Z,43.80
2017-09-19T13:52:40.637Z,45.70
2017-09-19T13:55:07.628Z,45.60
2017-09-19T13:57:35.420Z,44.60
2017-09-19T14:00:02.382Z,45.30
2017-09-19T14:02:29.232Z,46.50
2017-09-19T14:04:56.165Z,46.50
2017-09-19T14:07:23.044Z,47.30
2017-09-19T14:09:50.032Z,47.50
2017-09-19T14:12:19.216Z,47.40
2017-09-19T14:14:47.076Z,47.20
2017-09-19T14:17:15.029Z,47.30
2017-09-19T14:19:43.624Z,46.80
2017-09-19T14:22:13.824Z,47.00
2017-09-19T14:24:42.381Z,47.60
2017-09-19T14:27:10.899Z,48.10
2017-09-19T14:29:38.897Z,45.70
2017-09-19T14:32:06.607Z,45.70
2017-09-19T14:34:35.731Z,45.70
2017-09-19T14:37:02.781Z,47.30
2017-09-19T14:39:29.679Z,48.60
2017-09-19T14:41:56.681Z,48.90
2017-09-19T14:44:23.560Z,50.10
2017-09-19T14:46:50.526Z,50.30
2017-09-19T14:49:17.412Z,51.10
2017-09-19T14:51:44.358Z,51.30
2017-09-19T14:54:11.988Z,50.90
2017-09-19T14:56:38.864Z,50.70
2017-09-19T14:59:09.372Z,51.10
2017-09-19T15:01:37.573Z,50.70
2017-09-19T15:04:05.628Z,50.50
2017-09-19T15:06:32.701Z,50.60
2017-09-19T15:09:00.388Z,50.70
2017-09-19T15:11:29.041Z,50.70
2017-09-19T15:13:59.348Z,50.00
2017-09-19T15:16:26.913Z,50.20
2017-09-19T15:18:54.049Z,51.10
2017-09-19T15:21:20.959Z,51.90
2017-09-19T15:23:47.899Z,52.10
2017-09-19T15:26:15.069Z,51.90
2017-09-19T15:28:41.965Z,52.10
2017-09-19T15:31:14.830Z,52.00
2017-09-19T15:33:42.511Z,52.10
2017-09-19T15:36:14.442Z,52.00
2017-09-19T15:38:41.423Z,53.10
2017-09-19T15:41:08.285Z,54.20
2017-09-19T15:43:37.263Z,53.90
2017-09-19T15:46:10.979Z,53.90
2017-09-19T15:48:38.511Z,54.20
2017-09-19T15:51:08.200Z,53.70
2017-09-19T15:53:39.547Z,54.00
2017-09-19T15:56:06.802Z,54.30
2017-09-19T15:58:33.757Z,54.70
2017-09-19T16:01:00.624Z,54.50
2017-09-19T16:03:27.603Z,55.20
2017-09-19T16:05:54.882Z,54.30
2017-09-19T16:08:21.760Z,54.30
2017-09-19T16:10:48.752Z,54.20
2017-09-19T16:13:20.378Z,54.80
2017-09-19T16:15:47.321Z,55.30
2017-09-19T16:18:14.215Z,55.70
2017-09-19T16:20:41.237Z,56.50
2017-09-19T16:23:09.495Z,57.20
2017-09-19T16:25:38.171Z,57.20
2017-09-19T16:28:05.190Z,57.40
2017-09-19T16:33:10.266Z,58.30
2017-09-19T16:35:37.168Z,59.00
2017-09-19T16:38:04.123Z,59.10
2017-09-19T16:40:31.020Z,58.80
2017-09-19T16:43:01.351Z,58.60
2017-09-19T16:45:28.509Z,57.70
2017-09-19T16:47:56.218Z,57.60
2017-09-19T16:50:30.953Z,57.70
2017-09-19T16:52:58.634Z,58.60
2017-09-19T16:55:25.618Z,58.00
2017-09-19T16:57:53.456Z,58.90
2017-09-19T17:00:20.366Z,58.90
2017-09-19T17:02:47.308Z,58.90
2017-09-19T17:05:14.227Z,59.30
2017-09-19T17:07:41.855Z,60.20
2017-09-19T17:10:08.881Z,60.20
2017-09-19T17:12:35.799Z,60.20
2017-09-19T17:15:02.746Z,60.10
2017-09-19T17:17:29.717Z,60.60
2017-09-19T17:19:57.071Z,60.90
2017-09-19T17:22:24.062Z,61.50
2017-09-19T17:24:50.952Z,61.80
2017-09-19T17:27:17.933Z,61.70
2017-09-19T17:29:44.884Z,62.30
2017-09-19T17:32:11.960Z,62.70
2017-09-19T17:34:39.649Z,63.60
2017-09-19T17:37:06.581Z,63.50
2017-09-19T17:39:33.637Z,64.00
2017-09-19T17:42:00.609Z,64.00
2017-09-19T17:44:27.637Z,64.40
2017-09-19T17:46:54.629Z,64.80
2017-09-19T17:49:21.507Z,65.30
2017-09-19T17:51:48.521Z,65.60
2017-09-19T17:54:15.517Z,65.90
2017-09-19T17:56:42.505Z,66.30
2017-09-19T17:59:09.416Z,66.50
2017-09-19T18:01:36.361Z,67.10
2017-09-19T18:04:03.344Z,66.90
2017-09-19T18:06:30.292Z,67.50
2017-09-19T18:08:57.304Z,67.60
2017-09-19T18:11:24.358Z,67.70
2017-09-19T18:13:51.393Z,67.40
2017-09-19T18:16:18.416Z,67.60
2017-09-19T18:18:46.089Z,67.90
2017-09-19T18:21:13.350Z,67.80
2017-09-19T18:23:40.329Z,68.50
2017-09-19T18:26:07.201Z,68.80
2017-09-19T18:28:34.101Z,69.30
2017-09-19T18:31:01.048Z,69.30
2017-09-19T18:33:27.917Z,69.30
2017-09-19T18:35:54.947Z,69.70
2017-09-19T18:38:21.815Z,69.50
2017-09-19T18:40:48.686Z,70.00
2017-09-19T18:43:15.610Z,70.80
2017-09-19T18:45:42.560Z,70.70
2017-09-19T18:48:09.513Z,71.20
2017-09-19T18:50:36.477Z,71.30
2017-09-19T18:53:03.384Z,71.50
2017-09-19T18:55:30.392Z,71.30
2017-09-19T18:57:57.291Z,71.70
2017-09-19T19:00:24.276Z,71.90
2017-09-19T19:02:51.253Z,71.70
2017-09-19T19:05:18.138Z,72.00
2017-09-19T19:07:45.233Z,72.20
2017-09-19T19:10:12.455Z,72.30
2017-09-19T19:12:40.195Z,72.00
2017-09-19T19:15:07.237Z,72.50
2017-09-19T19:17:34.153Z,72.50
2017-09-19T19:20:01.264Z,72.90
2017-09-19T19:22:28.256Z,73.10
2017-09-19T19:24:55.140Z,73.20
2017-09-19T19:27:22.129Z,73.40
2017-09-19T19:29:49.033Z,73.80
2017-09-19T19:32:15.922Z,73.60
2017-09-19T19:34:43.703Z,74.00
2017-09-19T19:37:10.708Z,74.00
2017-09-19T19:39:37.733Z,74.30
2017-09-19T19:42:04.617Z,74.20
2017-09-19T19:44:32.360Z,74.70
2017-09-19T19:46:59.315Z,74.30
2017-09-19T19:49:26.192Z,74.30
2017-09-19T19:51:53.079Z,74.40
2017-09-19T19:54:20.038Z,74.50
2017-09-19T19:56:46.926Z,74.50
2017-09-19T19:59:13.973Z,74.60
2017-09-19T20:01:41.642Z,74.90
2017-09-19T20:04:08.561Z,74.80
2017-09-19T20:06:35.500Z,74.90
2017-09-19T20:09:02.478Z,75.10
2017-09-19T20:11:30.168Z,75.30
2017-09-19T20:13:57.103Z,75.20
2017-09-19T20:16:24.047Z,75.50
2017-09-19T20:18:51.136Z,75.20
2017-09-19T20:21:18.453Z,75.50
2017-09-19T20:23:45.376Z,75.50
2017-09-19T20:26:12.340Z,75.80
2017-09-19T20:28:39.258Z,75.60
2017-09-19T20:31:06.888Z,75.60
2017-09-19T20:33:33.864Z,75.60
2017-09-19T20:36:00.760Z,75.60
2017-09-19T20:38:27.783Z,75.80
2017-09-19T20:40:54.664Z,75.90
2017-09-19T20:43:21.568Z,76.10
2017-09-19T20:45:48.529Z,76.20
2017-09-19T20:48:15.403Z,76.60
2017-09-19T20:50:42.382Z,76.80
2017-09-19T20:53:09.849Z,77.20
2017-09-19T20:55:37.095Z,77.20
2017-09-19T20:58:04.048Z,77.00
2017-09-19T21:00:31.700Z,77.90
2017-09-19T21:02:58.505Z,77.10
2017-09-19T21:05:31.549Z,77.10
2017-09-19T21:08:04.417Z,77.00
2017-09-19T21:10:37.320Z,77.20
2017-09-19T21:13:10.822Z,77.40
2017-09-19T21:15:44.383Z,77.70
2017-09-19T21:18:17.258Z,77.70
2017-09-19T21:21:00.310Z,77.70
2017-09-19T21:23:37.934Z,77.80
2017-09-19T21:29:03.255Z,77.90
2017-09-19T21:31:36.871Z,78.00
2017-09-19T21:34:04.000Z,77.80
2017-09-19T21:36:30.894Z,78.30
2017-09-19T21:38:57.852Z,78.30
2017-09-19T21:41:24.744Z,78.20
2017-09-19T21:44:04.811Z,78.30
2017-09-19T21:46:31.715Z,77.90
2017-09-19T21:48:58.662Z,77.80
2017-09-19T21:51:25.570Z,77.90
2017-09-19T21:53:52.436Z,77.80
2017-09-19T21:56:19.391Z,77.70
2017-09-19T21:58:46.304Z,77.70
2017-09-19T22:01:17.744Z,78.00
2017-09-19T22:03:44.971Z,78.30
2017-09-19T22:06:16.757Z,79.10
2017-09-19T22:08:43.740Z,78.50
2017-09-19T22:11:11.091Z,78.50
2017-09-19T22:13:39.302Z,78.30
2017-09-19T22:16:06.539Z,78.20
2017-09-19T22:18:33.545Z,78.10
2017-09-19T22:21:00.432Z,78.00
2017-09-19T22:23:32.841Z,78.70
2017-09-19T22:26:05.615Z,78.00
2017-09-19T22:28:32.500Z,78.40
2017-09-19T22:30:59.484Z,78.30
2017-09-19T22:33:26.528Z,78.30
2017-09-19T22:35:58.443Z,78.30
2017-09-19T22:38:25.782Z,78.40
2017-09-19T22:40:53.520Z,78.70
2017-09-19T22:43:23.612Z,78.70
2017-09-19T22:45:50.606Z,78.60
2017-09-19T22:48:17.532Z,78.70
2017-09-19T22:50:50.371Z,78.70
2017-09-19T22:53:17.425Z,78.80
2017-09-19T22:55:44.339Z,79.10
2017-09-19T22:58:16.098Z,79.00
2017-09-19T23:00:43.153Z,78.80
2017-09-19T23:06:02.935Z,79.70
2017-09-19T23:08:31.008Z,79.10
2017-09-19T23:10:57.958Z,79.40
2017-09-19T23:13:24.940Z,79.60
2017-09-19T23:15:51.821Z,79.70
2017-09-19T23:18:18.704Z,79.80
2017-09-19T23:20:45.656Z,79.80
2017-09-19T23:23:13.298Z,79.60
2017-09-19T23:25:40.260Z,79.60
2017-09-19T23:28:07.163Z,79.70
2017-09-19T23:30:34.060Z,79.90
2017-09-19T23:33:01.091Z,80.00
2017-09-19T23:35:28.035Z,80.10
2017-09-19T23:37:55.829Z,80.70
2017-09-19T23:40:22.765Z,80.20
2017-09-19T23:42:49.642Z,80.10
2017-09-19T23:45:16.610Z,79.80
2017-09-19T23:47:43.554Z,80.00
2017-09-19T23:50:10.539Z,79.90
2017-09-19T23:52:38.179Z,80.00
2017-09-19T23:55:05.054Z,79.90
2017-09-19T23:57:32.768Z,80.00
2017-09-19T23:59:59.743Z,80.00
